Elida, Ohio
Current Conditions -  °F | °C
As of 12:53 AM on Saturday 20 Dec 2014 (Local Time) from KAOH Reporting Station
Haze Haze  
Wind Chill: 30°   Ceiling: 2700
Heat Index: 30°   Visibility: 6mi
Dew Point: 23°   Wind: 0mph
Humidity: 75%   Direction: NA
Pressure: 30.25"   Gusts: NA
Location:  40.8051°N, 84.1755°W
Report Text: KAOH 200553Z AUTO 00000KT 6SM HZ OVC027 M01/M05 A3025 RMK AO2 SLP253 T10111050 10000 21028 56005
Loading
Personal Weather Stations






























Interactive Weather Map New forecast layout! Learn more

10-Day Weather Forecast

Advertisements
Track Severe Weather on mobile